Observations for LIVERPOOL AIRPORT, United Kingdom (EGGP)

EGGP 190320Z 17007KT 9999 FEW036 14/12 Q1006
EGGP 190250Z 19007KT 9999 FEW036 15/13 Q1006
EGGP 190220Z 19010KT 9999 FEW030 14/12 Q1006
EGGP 190150Z 19009KT 9999 FEW030 15/13 Q1006
EGGP 190120Z 19012KT 9999 SCT022 15/13 Q1006
EGGP 190050Z 21006KT 9999 SCT036 15/13 Q1006
EGGP 190020Z 17008KT 9999 SCT028 16/14 Q1006
EGGP 182350Z 18009KT 150V210 9999 FEW025 SCT030 15/13 Q1006 
EGGP 182320Z 18009KT 130V210 9999 -DZ FEW025 SCT037 15/14 Q1006 
EGGP 182250Z 17007KT 9999 -DZ FEW027 16/14 Q1006
EGGP 182220Z 18009KT 9999 FEW031 16/14 Q1005
EGGP 182150Z 17010KT 9999 -DZ FEW042 16/14 Q1006
EGGP 182120Z 20011KT 9999 -DZ FEW027 17/13 Q1006
EGGP 182050Z 19008KT 9999 -DZ FEW025 17/14 Q1005
EGGP 182020Z 18011KT 9999 -DZ FEW049 16/15 Q1005
EGGP 181950Z 17009KT 9999 -DZ FEW049 16/15 Q1005
EGGP 181920Z 19014KT 9999 -DZ FEW020 SCT047 17/15 Q1005 
EGGP 181850Z 19015KT 9999 -DZ FEW019 SCT034 17/14 Q1005 
EGGP 181820Z 20019KT 9999 FEW019 SCT035 18/13 Q1005 
EGGP 181750Z 20016KT 9999 FEW025 SCT040 19/13 Q1004 
EGGP 181720Z 21021KT 9999 FEW025 SCT035 20/13 Q1004 
EGGP 181650Z 21022G32KT 9999 FEW025 SCT035 19/13 Q1004  
EGGP 181620Z 22020KT 9999 FEW033 19/14 Q1004
EGGP 181550Z 22024KT 9999 SCT033 20/14 Q1004
EGGP 181520Z 22015G25KT 9999 SCT033 20/14 Q1004 
EGGP 181450Z 22017KT 9999 SCT038 20/13 Q1004
EGGP 181420Z 22016KT 9999 SCT033 20/14 Q1004
EGGP 181350Z 22017KT 9999 SCT033 20/14 Q1004
EGGP 181320Z 22017KT 9999 BKN024 18/13 Q1004
EGGP 181250Z 22019KT 9999 SCT022 19/14 Q1004
EGGP 181220Z 22020G30KT 9999 BKN023 19/14 Q1003 
EGGP 181150Z 23019G29KT 9999 SCT028 19/13 Q1003 
EGGP 181120Z 24020G35KT 9999 FEW028 19/12 Q1002 
EGGP 181050Z 24017KT 9999 FEW022 18/12 Q1002
EGGP 181020Z 24018G31KT 9999 FEW016 SCT022 19/13 Q1002  
EGGP 180950Z 24015G25KT 9999 FEW016 BKN020 19/14 Q1001  
EGGP 180920Z 24014KT 9999 FEW015 BKN019 19/14 Q1000 
EGGP 180850Z 23014KT 9999 FEW015 BKN019 19/15 Q0999 
EGGP 180820Z 24013KT 9999 SCT017 BKN019 19/15 Q0999 
EGGP 180750Z 23014KT 9999 FEW014 SCT017 BKN019 18/15 Q0998  
EGGP 180720Z 22016KT 9999 FEW014 SCT017 BKN019 19/16 Q0997  
EGGP 180650Z 20015KT 9999 SCT012 BKN017 18/16 Q0996 
EGGP 180620Z 18018KT 9999 FEW009 SCT011 BKN017 17/15 Q0995  
EGGP 180550Z 18016KT 9999 VCSH SCT011 SCT015 BKN025 18/16 Q0995 
EGGP 180520Z 16016KT 9999 VCSH SCT011 SCT015 BKN033 17/16 Q0994 
EGGP 180450Z 15019KT 9999 VCSH SCT011 SCT015 BKN020 17/15 Q0995 
EGGP 180420Z 15020KT 110V170 9999 SCT019 SCT032 17/15 Q0995 
EGGP 180350Z 15017G28KT 9999 FEW017 BKN029 BKN034 17/14 Q0995   
EGGP 180320Z 14016G26KT 100V170 9999 FEW017 SCT022 17/14 Q0996  
EGGP 180250Z 15013KT 120V190 9999 SCT025 17/14 Q0997